createdAt,value
2023-04-23T00:01:44.594Z,11.49
2023-04-23T00:04:13.657Z,11.52
2023-04-23T00:06:42.735Z,11.48
2023-04-23T00:09:10.850Z,11.44
2023-04-23T00:11:37.597Z,11.43
2023-04-23T00:14:04.344Z,11.42
2023-04-23T00:16:31.132Z,11.42
2023-04-23T00:18:57.601Z,11.39
2023-04-23T00:21:24.156Z,11.36
2023-04-23T00:23:50.644Z,11.37
2023-04-23T00:26:18.464Z,11.37
2023-04-23T00:28:44.907Z,11.38
2023-04-23T00:31:11.361Z,11.38
2023-04-23T00:33:38.513Z,11.36
2023-04-23T00:36:05.508Z,11.35
2023-04-23T00:38:32.075Z,11.35
2023-04-23T00:40:58.668Z,11.37
2023-04-23T00:43:25.094Z,11.37
2023-04-23T00:45:51.698Z,11.37
2023-04-23T00:48:18.326Z,11.36
2023-04-23T00:50:44.846Z,11.30
2023-04-23T00:53:11.362Z,11.29
2023-04-23T00:55:38.271Z,11.29
2023-04-23T00:58:06.715Z,11.31
2023-04-23T01:00:40.100Z,11.26
2023-04-23T01:03:06.789Z,11.21
2023-04-23T01:05:33.424Z,11.17
2023-04-23T01:08:00.210Z,11.15
2023-04-23T01:10:26.801Z,11.13
2023-04-23T01:12:53.597Z,11.13
2023-04-23T01:15:20.115Z,11.17
2023-04-23T01:17:47.277Z,11.17
2023-04-23T01:20:14.239Z,11.14
2023-04-23T01:22:40.803Z,11.14
2023-04-23T01:25:08.232Z,11.13
2023-04-23T01:27:36.092Z,11.12
2023-04-23T01:30:06.268Z,11.12
2023-04-23T01:32:33.208Z,11.10
2023-04-23T01:35:00.039Z,11.06
2023-04-23T01:37:27.509Z,11.02
2023-04-23T01:39:53.948Z,11.02
2023-04-23T01:42:20.474Z,11.02
2023-04-23T01:44:47.062Z,10.99
2023-04-23T01:47:13.680Z,10.99
2023-04-23T01:49:40.719Z,10.98
2023-04-23T01:52:07.269Z,10.95
2023-04-23T01:54:33.686Z,10.92
2023-04-23T01:57:00.966Z,10.89
2023-04-23T01:59:27.562Z,10.90
2023-04-23T02:01:54.082Z,10.91
2023-04-23T02:04:21.005Z,10.90
2023-04-23T02:06:50.223Z,10.84
2023-04-23T02:09:16.820Z,10.80
2023-04-23T02:11:43.319Z,10.77
2023-04-23T02:14:10.833Z,10.76
2023-04-23T02:16:37.380Z,10.73
2023-04-23T02:19:04.175Z,10.73
2023-04-23T02:21:31.487Z,10.71
2023-04-23T02:23:58.036Z,10.67
2023-04-23T02:26:25.238Z,10.63
2023-04-23T02:28:51.919Z,10.55
2023-04-23T02:31:20.648Z,10.49
2023-04-23T02:33:47.692Z,10.41
2023-04-23T02:36:14.346Z,10.38
2023-04-23T02:38:42.432Z,10.33
2023-04-23T02:41:09.117Z,10.29
2023-04-23T02:43:35.671Z,10.34
2023-04-23T02:46:08.525Z,10.37
2023-04-23T02:48:40.623Z,10.37
2023-04-23T02:51:10.590Z,10.34
2023-04-23T02:53:37.306Z,10.40
2023-04-23T02:56:03.855Z,10.40
2023-04-23T02:58:30.475Z,10.42
2023-04-23T03:00:57.750Z,10.44
2023-04-23T03:03:26.715Z,10.47
2023-04-23T03:05:54.196Z,10.47
2023-04-23T03:08:20.769Z,10.48
2023-04-23T03:10:47.198Z,10.39
2023-04-23T03:13:13.621Z,10.41
2023-04-23T03:15:40.691Z,10.44
2023-04-23T03:18:08.429Z,10.41
2023-04-23T03:20:35.818Z,10.40
2023-04-23T03:23:02.919Z,10.41
2023-04-23T03:25:29.346Z,10.45
2023-04-23T03:27:55.815Z,10.50
2023-04-23T03:30:22.297Z,10.54
2023-04-23T03:32:49.862Z,10.58
2023-04-23T03:35:16.792Z,10.63
2023-04-23T03:37:43.212Z,10.66
2023-04-23T03:40:09.958Z,10.63
2023-04-23T03:42:36.724Z,10.60
2023-04-23T03:45:03.406Z,10.57
2023-04-23T03:47:30.063Z,10.53
2023-04-23T03:49:56.854Z,10.55
2023-04-23T03:52:23.280Z,10.56
2023-04-23T03:54:49.711Z,10.57
2023-04-23T03:57:16.437Z,10.57
2023-04-23T03:59:42.878Z,10.50
2023-04-23T04:02:09.536Z,10.45
2023-04-23T04:04:36.776Z,10.41
2023-04-23T04:07:03.611Z,10.36
2023-04-23T04:09:30.028Z,10.35
2023-04-23T04:11:56.511Z,10.30
2023-04-23T04:14:23.328Z,10.31
2023-04-23T04:16:49.860Z,10.30
2023-04-23T04:19:16.380Z,10.28
2023-04-23T04:21:42.848Z,10.27
2023-04-23T04:24:11.443Z,10.32
2023-04-23T04:26:38.199Z,10.30
2023-04-23T04:29:04.707Z,10.29
2023-04-23T04:31:32.340Z,10.25
2023-04-23T04:33:58.926Z,10.25
2023-04-23T04:36:27.287Z,10.24
2023-04-23T04:38:58.217Z,10.25
2023-04-23T04:41:27.877Z,10.28
2023-04-23T04:43:54.863Z,10.29
2023-04-23T04:46:21.730Z,10.29
2023-04-23T04:48:48.662Z,10.37
2023-04-23T04:51:15.610Z,10.42
2023-04-23T04:53:42.055Z,10.43
2023-04-23T04:56:09.015Z,10.47
2023-04-23T04:58:35.531Z,10.46
2023-04-23T05:01:02.378Z,10.52
2023-04-23T05:03:29.208Z,10.54
2023-04-23T05:05:56.432Z,10.57
2023-04-23T05:08:22.970Z,10.60
2023-04-23T05:10:54.083Z,10.64
2023-04-23T05:13:20.613Z,10.66
2023-04-23T05:15:47.250Z,10.68
2023-04-23T05:18:13.775Z,10.70
2023-04-23T05:20:41.151Z,10.70
2023-04-23T05:23:07.646Z,10.70
2023-04-23T05:25:35.558Z,10.74
2023-04-23T05:28:02.421Z,10.77
2023-04-23T05:30:29.094Z,10.79
2023-04-23T05:32:55.679Z,10.82
2023-04-23T05:35:22.142Z,10.85
2023-04-23T05:37:48.567Z,10.88
2023-04-23T05:40:15.056Z,10.87
2023-04-23T05:42:41.478Z,10.90
2023-04-23T05:45:09.194Z,10.92
2023-04-23T05:47:36.467Z,10.92
2023-04-23T05:50:02.959Z,10.93
2023-04-23T05:52:33.363Z,10.98
2023-04-23T05:54:59.955Z,11.00
2023-04-23T05:57:26.556Z,11.03
2023-04-23T05:59:53.017Z,11.02
2023-04-23T06:02:20.899Z,11.07
2023-04-23T06:04:49.217Z,11.09
2023-04-23T06:07:16.180Z,11.11
2023-04-23T06:09:42.588Z,11.13
2023-04-23T06:12:10.594Z,11.17
2023-04-23T06:14:37.224Z,11.19
2023-04-23T06:17:03.694Z,11.24
2023-04-23T06:19:30.169Z,11.27
2023-04-23T06:21:56.745Z,11.30
2023-04-23T06:24:23.166Z,11.33
2023-04-23T06:26:49.593Z,11.36
2023-04-23T06:29:16.064Z,11.41
2023-04-23T06:31:42.704Z,11.44
2023-04-23T06:34:09.226Z,11.47
2023-04-23T06:36:35.694Z,11.53
2023-04-23T06:39:02.177Z,11.56
2023-04-23T06:41:28.765Z,11.60
2023-04-23T06:43:55.293Z,11.65
2023-04-23T06:46:21.770Z,11.69
2023-04-23T06:48:48.292Z,11.72
2023-04-23T06:51:14.892Z,11.78
2023-04-23T06:53:41.409Z,11.83
2023-04-23T06:56:08.551Z,11.86
2023-04-23T06:58:35.134Z,11.93
2023-04-23T07:01:06.271Z,11.95
2023-04-23T07:03:33.306Z,11.98
2023-04-23T07:06:00.140Z,12.02
2023-04-23T07:08:26.681Z,12.07
2023-04-23T07:10:53.489Z,12.11
2023-04-23T07:13:20.016Z,12.10
2023-04-23T07:15:46.678Z,12.14
2023-04-23T07:18:13.688Z,12.19
2023-04-23T07:20:40.253Z,12.19
2023-04-23T07:23:06.808Z,12.21
2023-04-23T07:25:33.372Z,12.20
2023-04-23T07:27:59.921Z,12.26
2023-04-23T07:30:27.640Z,12.28
2023-04-23T07:32:55.666Z,12.29
2023-04-23T07:35:22.430Z,12.28
2023-04-23T07:37:53.596Z,12.27
2023-04-23T07:40:23.956Z,12.31
2023-04-23T07:42:51.678Z,12.31
2023-04-23T07:45:19.136Z,12.32
2023-04-23T07:47:48.914Z,12.33
2023-04-23T07:50:15.552Z,12.34
2023-04-23T07:52:42.141Z,12.37
2023-04-23T07:55:09.717Z,12.43
2023-04-23T07:57:36.339Z,12.49
2023-04-23T08:00:04.114Z,12.51
2023-04-23T08:02:30.678Z,12.49
2023-04-23T08:04:57.448Z,12.51
2023-04-23T08:07:24.027Z,12.51
2023-04-23T08:09:50.591Z,12.65
2023-04-23T08:12:17.471Z,12.64
2023-04-23T08:14:44.830Z,12.64
2023-04-23T08:17:11.302Z,12.64
2023-04-23T08:19:37.710Z,12.75
2023-04-23T08:22:04.373Z,12.83
2023-04-23T08:24:30.883Z,12.89
2023-04-23T08:26:57.509Z,12.99
2023-04-23T08:29:23.962Z,12.99
2023-04-23T08:31:50.752Z,13.07
2023-04-23T08:34:17.216Z,13.16
2023-04-23T08:36:43.679Z,13.22
2023-04-23T08:39:10.143Z,13.23
2023-04-23T08:41:42.904Z,13.27
2023-04-23T08:44:16.456Z,13.42
2023-04-23T08:46:44.385Z,13.62
2023-04-23T08:49:16.638Z,13.63
2023-04-23T08:51:53.580Z,13.70
2023-04-23T08:54:27.570Z,13.81
2023-04-23T08:56:58.491Z,13.88
2023-04-23T09:00:02.913Z,13.95
2023-04-23T09:02:29.592Z,14.07
2023-04-23T09:04:56.508Z,14.09
2023-04-23T09:07:23.213Z,14.09
2023-04-23T09:09:49.861Z,14.10
2023-04-23T09:12:16.740Z,14.21
2023-04-23T09:14:48.614Z,14.21
2023-04-23T09:17:15.452Z,14.31
2023-04-23T09:19:42.843Z,14.31
2023-04-23T09:22:10.133Z,14.42
2023-04-23T09:24:36.656Z,14.40
2023-04-23T09:27:03.948Z,14.35
2023-04-23T09:29:31.132Z,14.36
2023-04-23T09:32:08.358Z,14.29
2023-04-23T09:34:40.569Z,14.34
2023-04-23T09:37:24.440Z,14.36
2023-04-23T09:39:53.556Z,14.38
2023-04-23T09:42:23.691Z,14.39
2023-04-23T09:45:04.383Z,14.38
2023-04-23T09:47:47.968Z,14.61
2023-04-23T09:50:14.579Z,14.76
2023-04-23T09:52:41.539Z,14.75
2023-04-23T09:55:08.613Z,14.81
2023-04-23T09:57:39.005Z,14.71
2023-04-23T10:00:17.275Z,14.64
2023-04-23T10:02:51.500Z,14.65
2023-04-23T10:05:27.221Z,14.65
2023-04-23T10:07:58.478Z,14.63
2023-04-23T10:10:25.702Z,14.70
2023-04-23T10:12:57.242Z,14.80
2023-04-23T10:15:26.709Z,14.94
2023-04-23T10:17:56.847Z,15.03
2023-04-23T10:20:24.069Z,15.13
2023-04-23T10:22:53.669Z,15.29
2023-04-23T10:25:21.232Z,15.30
2023-04-23T10:27:54.410Z,15.27
2023-04-23T10:30:22.107Z,15.38
2023-04-23T10:32:49.852Z,15.44
2023-04-23T10:35:16.769Z,15.48
2023-04-23T10:37:45.836Z,15.54
2023-04-23T10:40:14.903Z,15.54
2023-04-23T10:42:43.646Z,15.47
2023-04-23T10:47:47.940Z,15.39
2023-04-23T10:50:22.924Z,15.33
2023-04-23T10:52:53.435Z,15.26
2023-04-23T10:55:22.720Z,15.26
2023-04-23T10:58:15.876Z,15.28
2023-04-23T11:00:45.859Z,15.30
2023-04-23T11:03:44.645Z,15.31
2023-04-23T11:06:20.126Z,15.34
2023-04-23T11:08:54.309Z,15.38
2023-04-23T11:11:39.811Z,15.49
2023-04-23T11:14:14.322Z,15.65
2023-04-23T11:16:41.152Z,15.85
2023-04-23T11:19:12.757Z,15.94
2023-04-23T11:22:02.429Z,16.09
2023-04-23T11:24:33.117Z,16.06
2023-04-23T11:27:01.315Z,16.00
2023-04-23T11:29:28.664Z,15.96
2023-04-23T11:34:26.176Z,15.87
2023-04-23T11:36:54.736Z,15.86
2023-04-23T11:39:24.119Z,15.91
2023-04-23T11:41:52.322Z,15.91
2023-04-23T11:44:22.607Z,16.02
2023-04-23T11:46:50.146Z,16.14
2023-04-23T11:49:20.096Z,16.13
2023-04-23T11:51:47.081Z,16.19
2023-04-23T11:54:14.574Z,16.17
2023-04-23T11:56:41.765Z,16.33
2023-04-23T11:59:08.774Z,16.41
2023-04-23T12:01:46.085Z,16.62
2023-04-23T12:04:20.360Z,16.65
2023-04-23T12:06:48.687Z,16.74
2023-04-23T12:09:16.618Z,16.77
2023-04-23T12:11:44.772Z,16.87
2023-04-23T12:14:12.812Z,16.88
2023-04-23T12:16:44.255Z,16.74
2023-04-23T12:19:14.815Z,16.59
2023-04-23T12:21:48.196Z,16.52
2023-04-23T12:24:15.517Z,16.63
2023-04-23T12:26:46.032Z,16.89
2023-04-23T12:29:13.897Z,17.46
2023-04-23T12:31:40.523Z,17.97
2023-04-23T12:34:09.059Z,18.37
2023-04-23T12:36:40.787Z,18.21
2023-04-23T12:39:31.222Z,18.47
2023-04-23T12:42:10.769Z,19.02
2023-04-23T12:44:38.967Z,19.39
2023-04-23T12:47:11.308Z,19.64
2023-04-23T12:49:40.243Z,19.85
2023-04-23T12:52:07.868Z,19.57
2023-04-23T12:54:39.595Z,18.97
2023-04-23T12:57:07.971Z,18.33
2023-04-23T12:59:34.613Z,18.21
2023-04-23T13:02:04.252Z,18.22
2023-04-23T13:04:33.986Z,18.22
2023-04-23T13:07:00.860Z,18.10
2023-04-23T13:09:28.924Z,18.30
2023-04-23T13:11:56.012Z,18.82
2023-04-23T13:14:22.563Z,19.03
2023-04-23T13:16:49.534Z,19.38
2023-04-23T13:19:17.483Z,19.26
2023-04-23T13:21:44.757Z,19.20
2023-04-23T13:24:11.434Z,19.04
2023-04-23T13:26:38.081Z,18.66
2023-04-23T13:29:04.815Z,18.37
2023-04-23T13:31:31.592Z,18.33
2023-04-23T13:33:58.386Z,18.26
2023-04-23T13:36:25.656Z,18.26
2023-04-23T13:38:52.286Z,18.50
2023-04-23T13:41:18.759Z,18.61
2023-04-23T13:43:45.254Z,18.32
2023-04-23T13:46:12.145Z,18.23
2023-04-23T13:48:38.648Z,18.20
2023-04-23T13:51:10.845Z,18.06
2023-04-23T13:53:43.832Z,17.94
2023-04-23T13:56:10.644Z,17.83
2023-04-23T13:58:37.216Z,17.78
2023-04-23T14:01:04.777Z,17.64
2023-04-23T14:03:31.298Z,17.59
2023-04-23T14:05:58.609Z,17.58
2023-04-23T14:08:25.316Z,17.55
2023-04-23T14:10:52.149Z,17.48
2023-04-23T14:13:18.628Z,17.46
2023-04-23T14:15:45.252Z,17.36
2023-04-23T14:18:11.920Z,17.33
2023-04-23T14:20:38.475Z,17.30
2023-04-23T14:23:27.644Z,17.22
2023-04-23T14:26:03.114Z,17.21
2023-04-23T14:28:34.762Z,17.13
2023-04-23T14:31:02.160Z,17.12
2023-04-23T14:33:28.711Z,17.12
2023-04-23T14:35:55.219Z,17.08
2023-04-23T14:38:21.765Z,17.08
2023-04-23T14:40:48.259Z,17.14
2023-04-23T14:43:15.807Z,17.13
2023-04-23T14:45:42.685Z,17.15
2023-04-23T14:48:09.162Z,17.12
2023-04-23T14:50:35.632Z,17.11
2023-04-23T14:53:06.922Z,17.11
2023-04-23T14:55:34.074Z,17.10
2023-04-23T14:58:00.664Z,17.06
2023-04-23T15:00:27.605Z,16.97
2023-04-23T15:02:54.147Z,16.89
2023-04-23T15:05:21.137Z,16.84
2023-04-23T15:07:47.627Z,16.78
2023-04-23T15:10:14.180Z,16.73
2023-04-23T15:12:40.635Z,16.56
2023-04-23T15:15:36.891Z,16.43
2023-04-23T15:18:07.745Z,16.31
2023-04-23T15:20:34.337Z,16.22
2023-04-23T15:23:00.843Z,16.14
2023-04-23T15:25:27.388Z,15.98
2023-04-23T15:27:57.760Z,15.91
2023-04-23T15:30:26.123Z,15.74
2023-04-23T15:32:56.312Z,15.57
2023-04-23T15:35:24.167Z,15.56
2023-04-23T15:37:50.733Z,15.49
2023-04-23T15:40:17.600Z,15.40
2023-04-23T15:42:48.017Z,15.30
2023-04-23T15:45:14.593Z,15.10
2023-04-23T15:47:42.246Z,15.10
2023-04-23T15:50:09.997Z,14.91
2023-04-23T15:52:37.746Z,14.75
2023-04-23T15:55:05.193Z,14.74
2023-04-23T15:57:32.076Z,14.49
2023-04-23T15:59:58.659Z,14.36
2023-04-23T16:02:25.401Z,14.37
2023-04-23T16:04:52.077Z,14.20
2023-04-23T16:07:18.698Z,14.18
2023-04-23T16:09:45.239Z,14.06
2023-04-23T16:12:12.533Z,13.98
2023-04-23T16:14:39.810Z,13.76
2023-04-23T16:17:06.338Z,13.69
2023-04-23T16:19:32.934Z,13.72
2023-04-23T16:21:59.571Z,13.76
2023-04-23T16:24:26.033Z,13.80
2023-04-23T16:26:52.497Z,13.82
2023-04-23T16:29:22.546Z,13.92
2023-04-23T16:31:49.884Z,13.95
2023-04-23T16:34:16.530Z,13.82
2023-04-23T16:36:43.183Z,13.78
2023-04-23T16:39:09.728Z,13.86
2023-04-23T16:41:36.180Z,13.91
2023-04-23T16:44:02.719Z,13.90
2023-04-23T16:46:30.955Z,13.90
2023-04-23T16:48:58.030Z,13.93
2023-04-23T16:51:25.076Z,13.90
2023-04-23T16:53:51.578Z,13.79
2023-04-23T16:56:18.294Z,13.75
2023-04-23T16:58:44.746Z,13.83
2023-04-23T17:01:11.390Z,13.84
2023-04-23T17:03:39.070Z,13.76
2023-04-23T17:06:20.715Z,13.65
2023-04-23T17:08:47.283Z,13.46
2023-04-23T17:11:13.858Z,13.41
2023-04-23T17:13:43.495Z,13.56
2023-04-23T17:16:10.118Z,13.65
2023-04-23T17:18:36.781Z,13.73
2023-04-23T17:21:03.379Z,13.74
2023-04-23T17:23:29.833Z,13.70
2023-04-23T17:25:56.238Z,13.62
2023-04-23T17:28:22.690Z,13.54
2023-04-23T17:30:50.432Z,13.52
2023-04-23T17:33:21.084Z,13.48
2023-04-23T17:35:51.857Z,13.42
2023-04-23T17:38:21.729Z,13.44
2023-04-23T17:40:52.782Z,13.51
2023-04-23T17:43:19.567Z,13.40
2023-04-23T17:45:47.667Z,13.35
2023-04-23T17:48:15.494Z,13.31
2023-04-23T17:50:42.584Z,13.27
2023-04-23T17:53:09.200Z,13.23
2023-04-23T17:55:36.023Z,13.14
2023-04-23T17:58:05.425Z,13.19
2023-04-23T18:00:40.077Z,13.17
2023-04-23T18:03:08.649Z,13.16
2023-04-23T18:05:36.132Z,13.07
2023-04-23T18:08:03.029Z,13.07
2023-04-23T18:10:29.840Z,13.05
2023-04-23T18:12:56.753Z,13.05
2023-04-23T18:15:25.598Z,13.05
2023-04-23T18:17:54.619Z,13.06
2023-04-23T18:22:49.374Z,13.00
2023-04-23T18:25:15.874Z,12.89
2023-04-23T18:27:42.339Z,12.92
2023-04-23T18:30:09.272Z,12.95
2023-04-23T18:32:41.536Z,12.91
2023-04-23T18:35:09.229Z,12.94
2023-04-23T18:37:43.767Z,12.92
2023-04-23T18:40:11.424Z,12.88
2023-04-23T18:42:38.266Z,12.87
2023-04-23T18:45:05.162Z,12.89
2023-04-23T18:47:38.130Z,12.86
2023-04-23T18:50:09.716Z,12.92
2023-04-23T18:52:37.313Z,12.93
2023-04-23T18:55:03.903Z,12.90
2023-04-23T18:57:30.385Z,12.86
2023-04-23T18:59:56.932Z,12.86
2023-04-23T19:02:34.732Z,12.85
2023-04-23T19:05:02.342Z,12.84
2023-04-23T19:07:28.799Z,12.89
2023-04-23T19:09:55.327Z,12.90
2023-04-23T19:12:21.737Z,12.89
2023-04-23T19:14:48.190Z,12.89
2023-04-23T19:17:16.690Z,12.85
2023-04-23T19:19:44.524Z,12.84
2023-04-23T19:22:11.457Z,12.80
2023-04-23T19:24:37.897Z,12.78
2023-04-23T19:27:05.441Z,12.76
2023-04-23T19:29:32.007Z,12.72
2023-04-23T19:31:58.566Z,12.66
2023-04-23T19:34:28.161Z,12.67
2023-04-23T19:36:54.672Z,12.66
2023-04-23T19:39:23.420Z,12.61
2023-04-23T19:41:50.282Z,12.64
2023-04-23T19:44:16.744Z,12.63
2023-04-23T19:46:43.262Z,12.60
2023-04-23T19:49:09.783Z,12.61
2023-04-23T19:51:38.185Z,12.59
2023-04-23T19:54:05.034Z,12.58
2023-04-23T19:56:31.542Z,12.57
2023-04-23T19:58:58.080Z,12.56
2023-04-23T20:01:25.488Z,12.54
2023-04-23T20:03:53.626Z,12.49
2023-04-23T20:06:21.036Z,12.43
2023-04-23T20:09:06.095Z,12.40
2023-04-23T20:11:33.656Z,12.34
2023-04-23T20:14:00.293Z,12.22
2023-04-23T20:16:28.407Z,12.23
2023-04-23T20:18:58.254Z,12.23
2023-04-23T20:21:24.922Z,12.08
2023-04-23T20:23:51.446Z,12.04
2023-04-23T20:26:19.386Z,12.02
2023-04-23T20:28:48.193Z,12.00
2023-04-23T20:31:15.765Z,12.00
2023-04-23T20:33:42.260Z,12.03
2023-04-23T20:36:10.835Z,11.99
2023-04-23T20:38:38.250Z,11.99
2023-04-23T20:41:10.075Z,12.04
2023-04-23T20:43:39.914Z,12.00
2023-04-23T20:46:10.280Z,11.99
2023-04-23T20:48:36.980Z,12.03
2023-04-23T20:51:03.684Z,12.04
2023-04-23T20:53:30.354Z,12.03
2023-04-23T20:55:57.103Z,12.07
2023-04-23T20:58:23.944Z,12.07
2023-04-23T21:00:51.313Z,12.04
2023-04-23T21:03:18.686Z,12.07
2023-04-23T21:05:45.265Z,12.05
2023-04-23T21:08:13.752Z,12.03
2023-04-23T21:10:41.615Z,11.97
2023-04-23T21:13:11.038Z,11.99
2023-04-23T21:15:38.560Z,11.97
2023-04-23T21:18:05.753Z,11.92
2023-04-23T21:20:32.291Z,11.93
2023-04-23T21:22:58.814Z,11.85
2023-04-23T21:25:26.666Z,11.82
2023-04-23T21:27:55.220Z,11.75
2023-04-23T21:30:41.460Z,11.75
2023-04-23T21:33:08.066Z,11.69
2023-04-23T21:35:34.559Z,11.66
2023-04-23T21:38:01.657Z,11.67
2023-04-23T21:40:28.347Z,11.61
2023-04-23T21:42:54.871Z,11.58
2023-04-23T21:45:21.468Z,11.54
2023-04-23T21:47:47.914Z,11.52
2023-04-23T21:50:17.339Z,11.51
2023-04-23T21:52:43.796Z,11.51
2023-04-23T21:55:12.260Z,11.51
2023-04-23T21:57:39.049Z,11.48
2023-04-23T22:00:06.854Z,11.48
2023-04-23T22:02:33.400Z,11.45
2023-04-23T22:04:59.938Z,11.46
2023-04-23T22:07:26.837Z,11.51
2023-04-23T22:09:53.390Z,11.54
2023-04-23T22:12:19.861Z,11.50
2023-04-23T22:14:46.277Z,11.48
2023-04-23T22:17:12.748Z,11.50
2023-04-23T22:19:39.264Z,11.46
2023-04-23T22:22:06.318Z,11.47
2023-04-23T22:24:32.773Z,11.48
2023-04-23T22:26:59.788Z,11.47
2023-04-23T22:29:26.219Z,11.48
2023-04-23T22:31:52.913Z,11.49
2023-04-23T22:34:19.571Z,11.52
2023-04-23T22:36:46.059Z,11.49
2023-04-23T22:39:12.894Z,11.49
2023-04-23T22:41:40.319Z,11.46
2023-04-23T22:44:06.975Z,11.47
2023-04-23T22:46:33.501Z,11.46
2023-04-23T22:49:01.177Z,11.45
2023-04-23T22:51:27.737Z,11.44
2023-04-23T22:53:54.268Z,11.45
2023-04-23T22:56:21.694Z,11.43
2023-04-23T22:58:48.105Z,11.42
2023-04-23T23:01:14.525Z,11.43
2023-04-23T23:03:41.033Z,11.41
2023-04-23T23:06:07.588Z,11.40
2023-04-23T23:08:33.965Z,11.37
2023-04-23T23:11:00.476Z,11.37
2023-04-23T23:13:26.915Z,11.34
2023-04-23T23:15:53.389Z,11.30
2023-04-23T23:18:19.872Z,11.29
2023-04-23T23:20:47.140Z,11.27
2023-04-23T23:23:13.599Z,11.24
2023-04-23T23:25:40.127Z,11.24
2023-04-23T23:28:06.681Z,11.24
2023-04-23T23:30:33.121Z,11.26
2023-04-23T23:33:00.346Z,11.26
2023-04-23T23:35:26.843Z,11.24
2023-04-23T23:37:53.317Z,11.21
2023-04-23T23:40:19.755Z,11.20
2023-04-23T23:42:46.169Z,11.17
2023-04-23T23:45:12.643Z,11.12
2023-04-23T23:47:39.187Z,11.08
2023-04-23T23:50:06.432Z,11.07
2023-04-23T23:52:33.215Z,11.01
2023-04-23T23:54:59.727Z,10.98
2023-04-23T23:57:26.457Z,10.96
2023-04-23T23:59:52.836Z,10.94
